Highlands, TX (77562)

5:51 AM CST on January 26, 2015 (GMT -0600)
Banana Bend | Change Station
CLOSE
Current Station
Personal Weather Station
Location: Highlands, TX
Elevation: 23 ft
Nearby Weather Stations

Elev 23 ft 29.85 °N, 95.09 °W | Updated 1 minute ago

Partly Cloudy
Partly Cloudy
52.1 °F
Feels Like 52.1 °F
N
8.1
Wind Variable Wind from North
Gusts 11.0 mph

Today
High -- | Low -- °F
--% Chance of Precip.
Yesterday
High -- | Low -- °F
Precip. -- in
7:13 AM 5:52 PM
Waxing Crescent, 42% visible
Pressure 30.18 in
Visibility 10.0 miles
Clouds Scattered Clouds 25000 ft
Dew Point 33 °F
Humidity 48%
Rainfall 0.00 in
Snow Depth Not available.
UV 0 out of 12
Pollen 5.80 out of 12
Air Quality Not available.
Flu Activity Not available.
METAR KEFD 261050Z 31005KT 10SM SCT250 12/M03 A3018

More Conditions Fewer Conditions

Pressure 30.18 in
Visibility 10.0 miles
Clouds Scattered Clouds 25000 ft
Dew Point 33 °F
Humidity 48%
Rainfall 0.00 in
Snow Depth Not available.
UV 0 out of 12
Pollen 5.80 out of 12
Air Quality Not available.
Flu Activity Not available.
METAR KEFD 261050Z 31005KT 10SM SCT250 12/M03 A3018

More Conditions Fewer Conditions

10-Day Weather Forecast

Almanac

Astronomy

Jan. 26, 2015 Rise Set
Actual Time
Civil Twilight
Nautical Twilight
Astronomical Twilight
Moon
Length of Visible Light
Length of Day
Tomorrow will be .
, % of the Moon is Illuminated

Today's Extremes

State Highs State Lows

Community

WunderPhotos

Upload Photos

1,790,172 photos uploaded!

WunderBlogs® & News

Nearby

Air Quality

  Air Quality AQ Index Pollutant
Not available.

Snow Depth

Station Depth Elevation

Earthquake Activity

City Distance Mag. Time & Date
Minimum magnitude displayed is 2.5.

Coastal Water Temperatures

Place Temperature

Nearby Weather Stations